sensor_id;sensor_type;location;lat;lon;timestamp;P1;durP1;ratioP1;P2;durP2;ratioP2
22417;SDS011;11376;50.932;4.442;2022-12-07T00:00:52;13.93;;;7.60;;
22417;SDS011;11376;50.932;4.442;2022-12-07T00:03:19;17.87;;;8.50;;
22417;SDS011;11376;50.932;4.442;2022-12-07T00:05:44;13.17;;;7.23;;
22417;SDS011;11376;50.932;4.442;2022-12-07T00:08:10;18.87;;;7.93;;
22417;SDS011;11376;50.932;4.442;2022-12-07T00:10:35;18.13;;;9.30;;
22417;SDS011;11376;50.932;4.442;2022-12-07T00:13:01;14.47;;;6.90;;
22417;SDS011;11376;50.932;4.442;2022-12-07T00:15:26;11.67;;;5.70;;
22417;SDS011;11376;50.932;4.442;2022-12-07T00:17:52;17.27;;;8.90;;
22417;SDS011;11376;50.932;4.442;2022-12-07T00:20:17;16.63;;;9.00;;
22417;SDS011;11376;50.932;4.442;2022-12-07T00:22:43;16.87;;;9.73;;
22417;SDS011;11376;50.932;4.442;2022-12-07T00:25:08;17.70;;;9.63;;
22417;SDS011;11376;50.932;4.442;2022-12-07T00:27:34;18.27;;;10.17;;
22417;SDS011;11376;50.932;4.442;2022-12-07T00:30:00;18.43;;;9.63;;
22417;SDS011;11376;50.932;4.442;2022-12-07T00:32:26;21.40;;;9.73;;
22417;SDS011;11376;50.932;4.442;2022-12-07T00:34:51;18.33;;;9.80;;
22417;SDS011;11376;50.932;4.442;2022-12-07T00:37:17;20.63;;;10.50;;
22417;SDS011;11376;50.932;4.442;2022-12-07T00:39:42;21.03;;;9.77;;
22417;SDS011;11376;50.932;4.442;2022-12-07T00:42:08;18.77;;;9.67;;
22417;SDS011;11376;50.932;4.442;2022-12-07T00:44:33;19.50;;;11.10;;
22417;SDS011;11376;50.932;4.442;2022-12-07T00:46:59;21.60;;;10.50;;
22417;SDS011;11376;50.932;4.442;2022-12-07T00:49:24;21.57;;;10.53;;
22417;SDS011;11376;50.932;4.442;2022-12-07T00:51:50;20.63;;;10.40;;
22417;SDS011;11376;50.932;4.442;2022-12-07T00:54:16;20.80;;;11.23;;
22417;SDS011;11376;50.932;4.442;2022-12-07T00:56:41;16.70;;;9.23;;
22417;SDS011;11376;50.932;4.442;2022-12-07T00:59:07;21.00;;;10.10;;
22417;SDS011;11376;50.932;4.442;2022-12-07T01:01:36;19.67;;;9.37;;
22417;SDS011;11376;50.932;4.442;2022-12-07T01:04:02;20.33;;;10.00;;
22417;SDS011;11376;50.932;4.442;2022-12-07T01:06:28;17.20;;;8.53;;
22417;SDS011;11376;50.932;4.442;2022-12-07T01:08:55;19.37;;;10.33;;
22417;SDS011;11376;50.932;4.442;2022-12-07T01:11:22;18.07;;;8.53;;
22417;SDS011;11376;50.932;4.442;2022-12-07T01:13:50;19.43;;;10.30;;
22417;SDS011;11376;50.932;4.442;2022-12-07T01:16:18;18.93;;;10.30;;
22417;SDS011;11376;50.932;4.442;2022-12-07T01:18:46;19.47;;;10.60;;
22417;SDS011;11376;50.932;4.442;2022-12-07T01:21:14;19.23;;;9.70;;
22417;SDS011;11376;50.932;4.442;2022-12-07T01:23:42;18.87;;;10.23;;
22417;SDS011;11376;50.932;4.442;2022-12-07T01:26:10;18.00;;;9.17;;
22417;SDS011;11376;50.932;4.442;2022-12-07T01:28:37;19.97;;;10.67;;
22417;SDS011;11376;50.932;4.442;2022-12-07T01:33:34;22.37;;;11.37;;
22417;SDS011;11376;50.932;4.442;2022-12-07T01:36:23;19.53;;;10.60;;
22417;SDS011;11376;50.932;4.442;2022-12-07T01:38:56;18.10;;;9.73;;
22417;SDS011;11376;50.932;4.442;2022-12-07T01:41:24;22.43;;;11.03;;
22417;SDS011;11376;50.932;4.442;2022-12-07T01:44:07;22.80;;;11.90;;
22417;SDS011;11376;50.932;4.442;2022-12-07T01:46:36;24.93;;;11.47;;
22417;SDS011;11376;50.932;4.442;2022-12-07T01:49:03;26.87;;;12.20;;
22417;SDS011;11376;50.932;4.442;2022-12-07T01:51:32;21.03;;;11.60;;
22417;SDS011;11376;50.932;4.442;2022-12-07T01:53:58;26.30;;;11.60;;
22417;SDS011;11376;50.932;4.442;2022-12-07T01:56:25;21.43;;;11.60;;
22417;SDS011;11376;50.932;4.442;2022-12-07T01:58:52;20.47;;;11.17;;
22417;SDS011;11376;50.932;4.442;2022-12-07T02:01:20;20.87;;;11.20;;
22417;SDS011;11376;50.932;4.442;2022-12-07T02:03:46;19.03;;;10.73;;
22417;SDS011;11376;50.932;4.442;2022-12-07T02:06:14;18.17;;;10.07;;
22417;SDS011;11376;50.932;4.442;2022-12-07T02:08:43;18.43;;;10.77;;
22417;SDS011;11376;50.932;4.442;2022-12-07T02:11:10;22.33;;;10.83;;
22417;SDS011;11376;50.932;4.442;2022-12-07T02:13:37;20.37;;;10.50;;
22417;SDS011;11376;50.932;4.442;2022-12-07T02:26:48;17.40;;;9.13;;
22417;SDS011;11376;50.932;4.442;2022-12-07T02:34:57;16.17;;;8.37;;
22417;SDS011;11376;50.932;4.442;2022-12-07T02:40:35;14.67;;;8.20;;
22417;SDS011;11376;50.932;4.442;2022-12-07T02:45:47;15.60;;;8.70;;
22417;SDS011;11376;50.932;4.442;2022-12-07T02:48:15;16.37;;;8.47;;
22417;SDS011;11376;50.932;4.442;2022-12-07T02:50:47;15.97;;;8.20;;
22417;SDS011;11376;50.932;4.442;2022-12-07T03:15:26;14.90;;;7.73;;
22417;SDS011;11376;50.932;4.442;2022-12-07T03:18:16;14.47;;;7.40;;
22417;SDS011;11376;50.932;4.442;2022-12-07T03:20:45;17.20;;;8.17;;
22417;SDS011;11376;50.932;4.442;2022-12-07T03:23:13;16.47;;;6.73;;
22417;SDS011;11376;50.932;4.442;2022-12-07T03:25:44;12.20;;;6.33;;
22417;SDS011;11376;50.932;4.442;2022-12-07T03:28:13;15.53;;;7.20;;
22417;SDS011;11376;50.932;4.442;2022-12-07T03:30:53;12.47;;;6.20;;
22417;SDS011;11376;50.932;4.442;2022-12-07T03:34:01;12.17;;;6.37;;
22417;SDS011;11376;50.932;4.442;2022-12-07T03:36:45;13.40;;;6.83;;
22417;SDS011;11376;50.932;4.442;2022-12-07T03:41:54;12.30;;;6.27;;
22417;SDS011;11376;50.932;4.442;2022-12-07T03:44:21;13.20;;;6.33;;
22417;SDS011;11376;50.932;4.442;2022-12-07T03:49:31;15.90;;;6.17;;
22417;SDS011;11376;50.932;4.442;2022-12-07T03:52:24;14.17;;;6.40;;
22417;SDS011;11376;50.932;4.442;2022-12-07T03:55:23;12.93;;;6.50;;
22417;SDS011;11376;50.932;4.442;2022-12-07T03:57:53;15.43;;;6.80;;
22417;SDS011;11376;50.932;4.442;2022-12-07T04:00:23;12.90;;;6.47;;
22417;SDS011;11376;50.932;4.442;2022-12-07T04:02:51;17.43;;;6.67;;
22417;SDS011;11376;50.932;4.442;2022-12-07T04:05:17;11.53;;;6.70;;
22417;SDS011;11376;50.932;4.442;2022-12-07T04:07:43;21.97;;;8.00;;
22417;SDS011;11376;50.932;4.442;2022-12-07T04:10:09;17.73;;;7.30;;
22417;SDS011;11376;50.932;4.442;2022-12-07T04:12:35;16.23;;;7.37;;
22417;SDS011;11376;50.932;4.442;2022-12-07T04:15:01;15.20;;;8.00;;
22417;SDS011;11376;50.932;4.442;2022-12-07T04:17:26;15.50;;;7.27;;
22417;SDS011;11376;50.932;4.442;2022-12-07T04:19:52;17.60;;;7.63;;
22417;SDS011;11376;50.932;4.442;2022-12-07T04:22:17;14.87;;;7.33;;
22417;SDS011;11376;50.932;4.442;2022-12-07T04:24:43;13.03;;;7.47;;
22417;SDS011;11376;50.932;4.442;2022-12-07T04:27:09;16.87;;;8.23;;
22417;SDS011;11376;50.932;4.442;2022-12-07T04:29:34;17.03;;;8.27;;
22417;SDS011;11376;50.932;4.442;2022-12-07T04:32:00;15.77;;;8.23;;
22417;SDS011;11376;50.932;4.442;2022-12-07T04:34:25;17.67;;;7.63;;
22417;SDS011;11376;50.932;4.442;2022-12-07T04:36:51;19.47;;;8.40;;
22417;SDS011;11376;50.932;4.442;2022-12-07T04:39:21;16.03;;;8.13;;
22417;SDS011;11376;50.932;4.442;2022-12-07T04:41:48;14.40;;;7.23;;
22417;SDS011;11376;50.932;4.442;2022-12-07T04:44:15;14.83;;;7.83;;
22417;SDS011;11376;50.932;4.442;2022-12-07T04:46:41;15.43;;;8.43;;
22417;SDS011;11376;50.932;4.442;2022-12-07T04:49:07;15.60;;;8.20;;
22417;SDS011;11376;50.932;4.442;2022-12-07T04:51:34;15.43;;;7.50;;
22417;SDS011;11376;50.932;4.442;2022-12-07T04:54:00;17.37;;;7.77;;
22417;SDS011;11376;50.932;4.442;2022-12-07T04:56:26;16.53;;;8.97;;
22417;SDS011;11376;50.932;4.442;2022-12-07T04:58:52;15.57;;;7.60;;
22417;SDS011;11376;50.932;4.442;2022-12-07T05:01:18;19.97;;;8.10;;
22417;SDS011;11376;50.932;4.442;2022-12-07T05:03:45;16.33;;;8.43;;
22417;SDS011;11376;50.932;4.442;2022-12-07T05:06:10;19.43;;;8.40;;
22417;SDS011;11376;50.932;4.442;2022-12-07T05:08:37;18.53;;;8.83;;
22417;SDS011;11376;50.932;4.442;2022-12-07T05:11:03;18.40;;;8.80;;
22417;SDS011;11376;50.932;4.442;2022-12-07T05:13:29;18.40;;;8.90;;
22417;SDS011;11376;50.932;4.442;2022-12-07T05:15:55;20.50;;;8.57;;
22417;SDS011;11376;50.932;4.442;2022-12-07T05:18:21;18.37;;;9.03;;
22417;SDS011;11376;50.932;4.442;2022-12-07T05:20:46;18.17;;;8.57;;
22417;SDS011;11376;50.932;4.442;2022-12-07T05:23:12;18.90;;;8.77;;
22417;SDS011;11376;50.932;4.442;2022-12-07T05:25:38;18.73;;;8.63;;
22417;SDS011;11376;50.932;4.442;2022-12-07T05:28:04;20.37;;;9.90;;
22417;SDS011;11376;50.932;4.442;2022-12-07T05:30:30;17.37;;;9.20;;
22417;SDS011;11376;50.932;4.442;2022-12-07T05:32:56;16.27;;;8.47;;
22417;SDS011;11376;50.932;4.442;2022-12-07T05:35:21;14.83;;;8.10;;
22417;SDS011;11376;50.932;4.442;2022-12-07T05:37:47;18.87;;;9.53;;
22417;SDS011;11376;50.932;4.442;2022-12-07T05:40:14;19.60;;;9.23;;
22417;SDS011;11376;50.932;4.442;2022-12-07T05:42:40;18.10;;;9.77;;
22417;SDS011;11376;50.932;4.442;2022-12-07T05:45:06;18.10;;;9.47;;
22417;SDS011;11376;50.932;4.442;2022-12-07T05:47:33;18.30;;;9.23;;
22417;SDS011;11376;50.932;4.442;2022-12-07T05:49:58;18.97;;;9.53;;
22417;SDS011;11376;50.932;4.442;2022-12-07T05:52:24;22.00;;;9.40;;
22417;SDS011;11376;50.932;4.442;2022-12-07T05:54:49;19.67;;;8.97;;
22417;SDS011;11376;50.932;4.442;2022-12-07T05:57:15;21.10;;;9.30;;
22417;SDS011;11376;50.932;4.442;2022-12-07T05:59:41;16.03;;;8.60;;
22417;SDS011;11376;50.932;4.442;2022-12-07T06:02:09;18.73;;;9.53;;
22417;SDS011;11376;50.932;4.442;2022-12-07T06:04:38;13.13;;;7.50;;
22417;SDS011;11376;50.932;4.442;2022-12-07T06:07:05;21.60;;;9.30;;
22417;SDS011;11376;50.932;4.442;2022-12-07T06:09:31;16.43;;;8.73;;
22417;SDS011;11376;50.932;4.442;2022-12-07T06:11:57;13.13;;;6.13;;
22417;SDS011;11376;50.932;4.442;2022-12-07T06:14:42;19.53;;;8.93;;
22417;SDS011;11376;50.932;4.442;2022-12-07T06:17:09;20.03;;;8.07;;
22417;SDS011;11376;50.932;4.442;2022-12-07T06:19:35;20.17;;;8.83;;
22417;SDS011;11376;50.932;4.442;2022-12-07T06:22:01;15.37;;;8.13;;
22417;SDS011;11376;50.932;4.442;2022-12-07T06:24:29;14.17;;;6.53;;
22417;SDS011;11376;50.932;4.442;2022-12-07T06:26:55;14.73;;;6.63;;
22417;SDS011;11376;50.932;4.442;2022-12-07T06:29:21;14.53;;;7.20;;
22417;SDS011;11376;50.932;4.442;2022-12-07T06:31:47;12.57;;;7.47;;
22417;SDS011;11376;50.932;4.442;2022-12-07T06:34:14;15.53;;;7.10;;
22417;SDS011;11376;50.932;4.442;2022-12-07T06:36:41;14.77;;;7.57;;
22417;SDS011;11376;50.932;4.442;2022-12-07T06:39:07;15.37;;;7.80;;
22417;SDS011;11376;50.932;4.442;2022-12-07T06:41:34;16.60;;;7.77;;
22417;SDS011;11376;50.932;4.442;2022-12-07T06:44:02;13.80;;;7.23;;
22417;SDS011;11376;50.932;4.442;2022-12-07T06:46:28;15.83;;;7.50;;
22417;SDS011;11376;50.932;4.442;2022-12-07T06:48:53;15.23;;;7.93;;
22417;SDS011;11376;50.932;4.442;2022-12-07T06:51:19;20.37;;;8.70;;
22417;SDS011;11376;50.932;4.442;2022-12-07T06:53:44;18.20;;;8.27;;
22417;SDS011;11376;50.932;4.442;2022-12-07T06:56:10;16.30;;;7.57;;
22417;SDS011;11376;50.932;4.442;2022-12-07T06:58:36;18.77;;;8.97;;
22417;SDS011;11376;50.932;4.442;2022-12-07T07:01:02;16.77;;;7.20;;
22417;SDS011;11376;50.932;4.442;2022-12-07T07:03:28;15.93;;;7.50;;
22417;SDS011;11376;50.932;4.442;2022-12-07T07:05:54;15.30;;;7.00;;
22417;SDS011;11376;50.932;4.442;2022-12-07T07:08:19;16.30;;;7.80;;
22417;SDS011;11376;50.932;4.442;2022-12-07T07:10:45;15.97;;;7.53;;
22417;SDS011;11376;50.932;4.442;2022-12-07T07:13:11;23.53;;;8.37;;
22417;SDS011;11376;50.932;4.442;2022-12-07T07:15:37;14.57;;;7.70;;
22417;SDS011;11376;50.932;4.442;2022-12-07T07:18:03;21.63;;;8.60;;
22417;SDS011;11376;50.932;4.442;2022-12-07T07:20:29;20.93;;;8.43;;
22417;SDS011;11376;50.932;4.442;2022-12-07T07:22:55;18.63;;;8.80;;
22417;SDS011;11376;50.932;4.442;2022-12-07T07:25:21;15.30;;;8.57;;
22417;SDS011;11376;50.932;4.442;2022-12-07T07:27:46;20.63;;;8.43;;
22417;SDS011;11376;50.932;4.442;2022-12-07T07:30:12;26.50;;;8.30;;
22417;SDS011;11376;50.932;4.442;2022-12-07T07:32:38;17.27;;;7.33;;
22417;SDS011;11376;50.932;4.442;2022-12-07T07:35:03;16.40;;;6.53;;
22417;SDS011;11376;50.932;4.442;2022-12-07T07:37:29;16.70;;;7.40;;
22417;SDS011;11376;50.932;4.442;2022-12-07T07:39:55;14.53;;;6.83;;
22417;SDS011;11376;50.932;4.442;2022-12-07T07:42:21;17.40;;;7.70;;
22417;SDS011;11376;50.932;4.442;2022-12-07T07:44:47;17.10;;;6.90;;
22417;SDS011;11376;50.932;4.442;2022-12-07T07:47:12;14.60;;;7.80;;
22417;SDS011;11376;50.932;4.442;2022-12-07T07:49:38;15.90;;;6.77;;
22417;SDS011;11376;50.932;4.442;2022-12-07T07:52:04;13.77;;;7.13;;
22417;SDS011;11376;50.932;4.442;2022-12-07T07:54:31;16.87;;;7.63;;
22417;SDS011;11376;50.932;4.442;2022-12-07T07:56:56;18.57;;;7.03;;
22417;SDS011;11376;50.932;4.442;2022-12-07T07:59:22;15.53;;;7.80;;
22417;SDS011;11376;50.932;4.442;2022-12-07T08:01:48;18.10;;;7.70;;
22417;SDS011;11376;50.932;4.442;2022-12-07T08:04:13;17.57;;;8.67;;
22417;SDS011;11376;50.932;4.442;2022-12-07T08:06:39;24.97;;;8.80;;
22417;SDS011;11376;50.932;4.442;2022-12-07T08:09:07;22.37;;;8.33;;
22417;SDS011;11376;50.932;4.442;2022-12-07T08:11:33;14.73;;;8.67;;
22417;SDS011;11376;50.932;4.442;2022-12-07T08:13:59;18.93;;;9.13;;
22417;SDS011;11376;50.932;4.442;2022-12-07T08:16:24;20.03;;;9.03;;
22417;SDS011;11376;50.932;4.442;2022-12-07T08:18:50;19.30;;;9.53;;
22417;SDS011;11376;50.932;4.442;2022-12-07T08:21:16;21.87;;;8.50;;
22417;SDS011;11376;50.932;4.442;2022-12-07T08:23:41;20.00;;;8.57;;
22417;SDS011;11376;50.932;4.442;2022-12-07T08:26:08;17.55;;;8.65;;
22417;SDS011;11376;50.932;4.442;2022-12-07T08:28:36;20.60;;;8.90;;
22417;SDS011;11376;50.932;4.442;2022-12-07T08:31:03;23.67;;;9.97;;
22417;SDS011;11376;50.932;4.442;2022-12-07T08:33:31;19.53;;;8.83;;
22417;SDS011;11376;50.932;4.442;2022-12-07T08:36:04;16.20;;;8.90;;
22417;SDS011;11376;50.932;4.442;2022-12-07T08:38:31;14.40;;;7.30;;
22417;SDS011;11376;50.932;4.442;2022-12-07T08:40:57;21.50;;;10.13;;
22417;SDS011;11376;50.932;4.442;2022-12-07T08:43:23;18.40;;;9.33;;
22417;SDS011;11376;50.932;4.442;2022-12-07T08:46:03;15.53;;;7.63;;
22417;SDS011;11376;50.932;4.442;2022-12-07T08:48:34;18.67;;;9.10;;
22417;SDS011;11376;50.932;4.442;2022-12-07T08:51:04;23.20;;;9.77;;
22417;SDS011;11376;50.932;4.442;2022-12-07T08:53:29;18.63;;;9.23;;
22417;SDS011;11376;50.932;4.442;2022-12-07T08:55:56;12.20;;;6.87;;
22417;SDS011;11376;50.932;4.442;2022-12-07T08:58:22;15.33;;;6.73;;
22417;SDS011;11376;50.932;4.442;2022-12-07T09:00:48;16.23;;;6.37;;
22417;SDS011;11376;50.932;4.442;2022-12-07T09:03:14;16.53;;;6.97;;
22417;SDS011;11376;50.932;4.442;2022-12-07T09:05:39;18.27;;;6.47;;
22417;SDS011;11376;50.932;4.442;2022-12-07T09:08:05;13.07;;;5.60;;
22417;SDS011;11376;50.932;4.442;2022-12-07T09:10:32;17.30;;;6.50;;
22417;SDS011;11376;50.932;4.442;2022-12-07T09:12:58;11.40;;;5.50;;
22417;SDS011;11376;50.932;4.442;2022-12-07T09:15:27;13.20;;;5.07;;
22417;SDS011;11376;50.932;4.442;2022-12-07T09:17:53;12.13;;;6.10;;
22417;SDS011;11376;50.932;4.442;2022-12-07T09:20:18;10.77;;;5.83;;
22417;SDS011;11376;50.932;4.442;2022-12-07T09:22:44;15.43;;;5.47;;
22417;SDS011;11376;50.932;4.442;2022-12-07T09:25:10;16.17;;;5.60;;
22417;SDS011;11376;50.932;4.442;2022-12-07T09:27:35;17.63;;;5.23;;
22417;SDS011;11376;50.932;4.442;2022-12-07T09:30:01;13.03;;;5.03;;
22417;SDS011;11376;50.932;4.442;2022-12-07T09:32:28;11.57;;;5.40;;
22417;SDS011;11376;50.932;4.442;2022-12-07T09:34:53;15.27;;;5.80;;
22417;SDS011;11376;50.932;4.442;2022-12-07T09:37:19;16.00;;;6.07;;
22417;SDS011;11376;50.932;4.442;2022-12-07T09:39:44;14.67;;;6.50;;
22417;SDS011;11376;50.932;4.442;2022-12-07T09:42:11;12.80;;;5.73;;
22417;SDS011;11376;50.932;4.442;2022-12-07T09:44:51;11.43;;;5.43;;
22417;SDS011;11376;50.932;4.442;2022-12-07T09:47:16;16.73;;;6.07;;
22417;SDS011;11376;50.932;4.442;2022-12-07T09:49:42;13.83;;;6.33;;
22417;SDS011;11376;50.932;4.442;2022-12-07T09:54:34;11.03;;;4.27;;
22417;SDS011;11376;50.932;4.442;2022-12-07T09:57:01;13.13;;;3.87;;
22417;SDS011;11376;50.932;4.442;2022-12-07T09:59:27;10.27;;;4.10;;
22417;SDS011;11376;50.932;4.442;2022-12-07T10:01:52;11.63;;;4.57;;
22417;SDS011;11376;50.932;4.442;2022-12-07T10:04:19;10.73;;;3.77;;
22417;SDS011;11376;50.932;4.442;2022-12-07T10:06:48;12.07;;;3.43;;
22417;SDS011;11376;50.932;4.442;2022-12-07T10:09:16;12.40;;;3.70;;
22417;SDS011;11376;50.932;4.442;2022-12-07T10:12:04;8.93;;;3.20;;
22417;SDS011;11376;50.932;4.442;2022-12-07T10:14:32;8.20;;;3.03;;
22417;SDS011;11376;50.932;4.442;2022-12-07T10:16:59;9.93;;;3.03;;
22417;SDS011;11376;50.932;4.442;2022-12-07T10:19:30;9.93;;;3.30;;
22417;SDS011;11376;50.932;4.442;2022-12-07T10:22:05;11.17;;;3.60;;
22417;SDS011;11376;50.932;4.442;2022-12-07T10:24:38;8.97;;;2.67;;
22417;SDS011;11376;50.932;4.442;2022-12-07T10:27:16;9.00;;;3.17;;
22417;SDS011;11376;50.932;4.442;2022-12-07T10:29:47;6.63;;;3.00;;
22417;SDS011;11376;50.932;4.442;2022-12-07T10:34:41;12.03;;;3.33;;
22417;SDS011;11376;50.932;4.442;2022-12-07T10:42:20;20.97;;;5.77;;
22417;SDS011;11376;50.932;4.442;2022-12-07T10:47:38;9.90;;;3.50;;
22417;SDS011;11376;50.932;4.442;2022-12-07T10:53:17;9.00;;;3.50;;
22417;SDS011;11376;50.932;4.442;2022-12-07T11:01:31;8.23;;;3.23;;
22417;SDS011;11376;50.932;4.442;2022-12-07T11:07:18;10.13;;;3.47;;
22417;SDS011;11376;50.932;4.442;2022-12-07T11:15:14;12.67;;;4.03;;
22417;SDS011;11376;50.932;4.442;2022-12-07T11:23:13;11.67;;;3.63;;
22417;SDS011;11376;50.932;4.442;2022-12-07T11:26:17;9.67;;;3.77;;
22417;SDS011;11376;50.932;4.442;2022-12-07T11:28:58;11.47;;;3.40;;
22417;SDS011;11376;50.932;4.442;2022-12-07T11:34:47;7.13;;;2.90;;
22417;SDS011;11376;50.932;4.442;2022-12-07T11:37:35;8.17;;;3.20;;
22417;SDS011;11376;50.932;4.442;2022-12-07T11:40:36;6.83;;;2.80;;
22417;SDS011;11376;50.932;4.442;2022-12-07T11:45:37;10.57;;;2.97;;
22417;SDS011;11376;50.932;4.442;2022-12-07T11:50:56;9.67;;;3.30;;
22417;SDS011;11376;50.932;4.442;2022-12-07T11:53:46;8.70;;;2.90;;
22417;SDS011;11376;50.932;4.442;2022-12-07T11:56:25;8.67;;;2.50;;
22417;SDS011;11376;50.932;4.442;2022-12-07T12:04:27;9.27;;;2.63;;
22417;SDS011;11376;50.932;4.442;2022-12-07T12:07:10;5.83;;;2.37;;
22417;SDS011;11376;50.932;4.442;2022-12-07T12:09:52;10.87;;;2.40;;
22417;SDS011;11376;50.932;4.442;2022-12-07T12:12:45;11.07;;;2.33;;
22417;SDS011;11376;50.932;4.442;2022-12-07T12:18:27;8.87;;;2.90;;
22417;SDS011;11376;50.932;4.442;2022-12-07T12:21:01;8.13;;;2.30;;
22417;SDS011;11376;50.932;4.442;2022-12-07T12:23:37;6.33;;;2.20;;
22417;SDS011;11376;50.932;4.442;2022-12-07T12:26:27;6.67;;;2.40;;
22417;SDS011;11376;50.932;4.442;2022-12-07T12:33:53;8.40;;;1.90;;
22417;SDS011;11376;50.932;4.442;2022-12-07T12:36:23;6.27;;;2.03;;
22417;SDS011;11376;50.932;4.442;2022-12-07T12:39:11;7.23;;;1.70;;
22417;SDS011;11376;50.932;4.442;2022-12-07T12:47:02;5.85;;;1.30;;
22417;SDS011;11376;50.932;4.442;2022-12-07T12:49:33;6.65;;;1.60;;
22417;SDS011;11376;50.932;4.442;2022-12-07T12:54:38;5.40;;;1.43;;
22417;SDS011;11376;50.932;4.442;2022-12-07T12:57:33;6.63;;;1.50;;
22417;SDS011;11376;50.932;4.442;2022-12-07T13:00:00;8.73;;;1.80;;
22417;SDS011;11376;50.932;4.442;2022-12-07T13:05:29;5.37;;;1.57;;
22417;SDS011;11376;50.932;4.442;2022-12-07T13:08:00;7.10;;;1.77;;
22417;SDS011;11376;50.932;4.442;2022-12-07T13:10:44;6.60;;;1.10;;
22417;SDS011;11376;50.932;4.442;2022-12-07T13:15:41;4.80;;;1.30;;
22417;SDS011;11376;50.932;4.442;2022-12-07T13:20:59;10.20;;;1.87;;
22417;SDS011;11376;50.932;4.442;2022-12-07T13:28:48;7.33;;;1.80;;
22417;SDS011;11376;50.932;4.442;2022-12-07T13:31:33;8.63;;;1.77;;
22417;SDS011;11376;50.932;4.442;2022-12-07T13:33:59;8.93;;;1.93;;
22417;SDS011;11376;50.932;4.442;2022-12-07T13:36:29;4.73;;;1.20;;
22417;SDS011;11376;50.932;4.442;2022-12-07T13:39:09;8.40;;;1.50;;
22417;SDS011;11376;50.932;4.442;2022-12-07T13:42:30;8.13;;;1.80;;
22417;SDS011;11376;50.932;4.442;2022-12-07T13:45:01;7.13;;;2.10;;
22417;SDS011;11376;50.932;4.442;2022-12-07T13:48:17;4.10;;;1.50;;
22417;SDS011;11376;50.932;4.442;2022-12-07T13:51:00;8.43;;;1.67;;
22417;SDS011;11376;50.932;4.442;2022-12-07T13:53:27;11.97;;;1.83;;
22417;SDS011;11376;50.932;4.442;2022-12-07T13:55:55;11.07;;;2.27;;
22417;SDS011;11376;50.932;4.442;2022-12-07T13:58:23;6.80;;;2.03;;
22417;SDS011;11376;50.932;4.442;2022-12-07T14:00:49;6.03;;;1.83;;
22417;SDS011;11376;50.932;4.442;2022-12-07T14:05:41;6.77;;;2.30;;
22417;SDS011;11376;50.932;4.442;2022-12-07T14:13:22;5.50;;;2.33;;
22417;SDS011;11376;50.932;4.442;2022-12-07T14:15:57;8.07;;;3.10;;
22417;SDS011;11376;50.932;4.442;2022-12-07T14:21:13;7.50;;;3.77;;
22417;SDS011;11376;50.932;4.442;2022-12-07T14:23:39;9.63;;;3.60;;
22417;SDS011;11376;50.932;4.442;2022-12-07T14:26:15;6.80;;;3.50;;
22417;SDS011;11376;50.932;4.442;2022-12-07T14:28:44;7.80;;;3.90;;
22417;SDS011;11376;50.932;4.442;2022-12-07T14:31:12;7.90;;;3.20;;
22417;SDS011;11376;50.932;4.442;2022-12-07T14:33:42;10.73;;;2.67;;
22417;SDS011;11376;50.932;4.442;2022-12-07T14:36:09;5.43;;;2.30;;
22417;SDS011;11376;50.932;4.442;2022-12-07T14:38:38;7.93;;;2.20;;
22417;SDS011;11376;50.932;4.442;2022-12-07T14:41:04;5.20;;;2.00;;
22417;SDS011;11376;50.932;4.442;2022-12-07T14:43:55;8.63;;;1.90;;
22417;SDS011;11376;50.932;4.442;2022-12-07T14:46:21;6.47;;;2.30;;
22417;SDS011;11376;50.932;4.442;2022-12-07T14:48:46;7.73;;;2.40;;
22417;SDS011;11376;50.932;4.442;2022-12-07T14:51:13;6.13;;;2.57;;
22417;SDS011;11376;50.932;4.442;2022-12-07T14:53:42;8.67;;;2.83;;
22417;SDS011;11376;50.932;4.442;2022-12-07T14:56:12;8.47;;;3.43;;
22417;SDS011;11376;50.932;4.442;2022-12-07T14:58:38;7.33;;;2.80;;
22417;SDS011;11376;50.932;4.442;2022-12-07T15:01:05;7.70;;;3.00;;
22417;SDS011;11376;50.932;4.442;2022-12-07T15:03:30;5.50;;;2.40;;
22417;SDS011;11376;50.932;4.442;2022-12-07T15:05:56;8.03;;;2.60;;
22417;SDS011;11376;50.932;4.442;2022-12-07T15:08:22;7.50;;;3.10;;
22417;SDS011;11376;50.932;4.442;2022-12-07T15:10:47;7.53;;;3.10;;
22417;SDS011;11376;50.932;4.442;2022-12-07T15:13:13;7.33;;;2.60;;
22417;SDS011;11376;50.932;4.442;2022-12-07T15:15:57;9.57;;;2.80;;
22417;SDS011;11376;50.932;4.442;2022-12-07T15:18:23;9.17;;;2.67;;
22417;SDS011;11376;50.932;4.442;2022-12-07T15:20:49;7.13;;;2.60;;
22417;SDS011;11376;50.932;4.442;2022-12-07T15:23:16;7.87;;;2.47;;
22417;SDS011;11376;50.932;4.442;2022-12-07T15:25:42;8.27;;;2.40;;
22417;SDS011;11376;50.932;4.442;2022-12-07T15:28:09;6.37;;;2.23;;
22417;SDS011;11376;50.932;4.442;2022-12-07T15:30:36;8.97;;;2.20;;
22417;SDS011;11376;50.932;4.442;2022-12-07T15:33:02;7.27;;;2.40;;
22417;SDS011;11376;50.932;4.442;2022-12-07T15:35:28;4.83;;;2.33;;
22417;SDS011;11376;50.932;4.442;2022-12-07T15:37:53;5.27;;;2.40;;
22417;SDS011;11376;50.932;4.442;2022-12-07T15:40:19;14.83;;;3.50;;
22417;SDS011;11376;50.932;4.442;2022-12-07T15:42:45;11.63;;;2.97;;
22417;SDS011;11376;50.932;4.442;2022-12-07T15:45:10;12.57;;;3.23;;
22417;SDS011;11376;50.932;4.442;2022-12-07T15:47:39;8.43;;;3.33;;
22417;SDS011;11376;50.932;4.442;2022-12-07T15:50:07;8.90;;;2.67;;
22417;SDS011;11376;50.932;4.442;2022-12-07T15:52:35;12.10;;;3.03;;
22417;SDS011;11376;50.932;4.442;2022-12-07T15:55:01;7.37;;;2.77;;
22417;SDS011;11376;50.932;4.442;2022-12-07T15:57:28;11.03;;;3.40;;
22417;SDS011;11376;50.932;4.442;2022-12-07T15:59:54;8.60;;;3.60;;
22417;SDS011;11376;50.932;4.442;2022-12-07T16:02:20;10.67;;;3.97;;
22417;SDS011;11376;50.932;4.442;2022-12-07T16:04:47;11.60;;;3.43;;
22417;SDS011;11376;50.932;4.442;2022-12-07T16:07:13;17.50;;;4.20;;
22417;SDS011;11376;50.932;4.442;2022-12-07T16:09:40;10.23;;;4.17;;
22417;SDS011;11376;50.932;4.442;2022-12-07T16:12:07;10.87;;;4.47;;
22417;SDS011;11376;50.932;4.442;2022-12-07T16:14:32;8.37;;;3.30;;
22417;SDS011;11376;50.932;4.442;2022-12-07T16:16:58;9.57;;;3.57;;
22417;SDS011;11376;50.932;4.442;2022-12-07T16:19:24;10.77;;;4.70;;
22417;SDS011;11376;50.932;4.442;2022-12-07T16:21:50;9.33;;;4.23;;
22417;SDS011;11376;50.932;4.442;2022-12-07T16:24:15;13.50;;;4.70;;
22417;SDS011;11376;50.932;4.442;2022-12-07T16:26:41;11.40;;;4.47;;
22417;SDS011;11376;50.932;4.442;2022-12-07T16:29:09;13.13;;;5.03;;
22417;SDS011;11376;50.932;4.442;2022-12-07T16:31:37;10.47;;;4.67;;
22417;SDS011;11376;50.932;4.442;2022-12-07T16:34:03;9.90;;;4.17;;
22417;SDS011;11376;50.932;4.442;2022-12-07T16:36:28;10.57;;;4.57;;
22417;SDS011;11376;50.932;4.442;2022-12-07T16:38:54;9.83;;;4.40;;
22417;SDS011;11376;50.932;4.442;2022-12-07T16:41:20;8.73;;;4.20;;
22417;SDS011;11376;50.932;4.442;2022-12-07T16:43:46;9.37;;;3.90;;
22417;SDS011;11376;50.932;4.442;2022-12-07T16:46:11;11.07;;;4.07;;
22417;SDS011;11376;50.932;4.442;2022-12-07T16:48:38;7.60;;;3.20;;
22417;SDS011;11376;50.932;4.442;2022-12-07T16:51:05;8.13;;;3.80;;
22417;SDS011;11376;50.932;4.442;2022-12-07T16:53:34;8.40;;;4.03;;
22417;SDS011;11376;50.932;4.442;2022-12-07T16:56:00;6.63;;;3.50;;
22417;SDS011;11376;50.932;4.442;2022-12-07T16:58:26;13.40;;;4.77;;
22417;SDS011;11376;50.932;4.442;2022-12-07T17:00:52;11.07;;;4.33;;
22417;SDS011;11376;50.932;4.442;2022-12-07T17:03:17;9.40;;;4.80;;
22417;SDS011;11376;50.932;4.442;2022-12-07T17:05:44;12.20;;;4.67;;
22417;SDS011;11376;50.932;4.442;2022-12-07T17:08:11;9.90;;;4.37;;